Time;durP1;ratioP1;P1;durP2;ratioP2;P2;SDS_P1;SDS_P2;PMS_P1;PMS_P2;Temp;Humidity;BMP_temperature;BMP_pressure;BME280_temperature;BME280_humidity;BME280_pressure;Samples;Min_cycle;Max_cycle;Signal;HPM_P1;HPM_P2
2021/05/11 00:01:52;;;;;;;1999.90;999.90;;;;;;;15.64;100.00;-2574.00;4960328;29;20204;-67
2021/05/11 00:04:38;;;;;;;1999.90;999.90;;;;;;;15.25;100.00;-3548.78;4960863;29;20290;-67
2021/05/11 00:07:23;;;;;;;1999.90;999.90;;;;;;;15.21;100.00;581.47;4960223;29;20203;-67
2021/05/11 00:10:10;;;;;;;1999.90;999.90;;;;;;;15.04;100.00;5357.75;4960813;29;20200;-68
2021/05/11 00:12:56;;;;;;;1999.90;999.90;;;;;;;15.10;100.00;7926.44;4960182;29;20895;-68
2021/05/11 00:15:42;;;;;;;1999.90;999.90;;;;;;;15.13;100.00;12293.22;4960658;29;20254;-67
2021/05/11 00:18:28;;;;;;;1999.90;999.90;;;;;;;14.99;100.00;12004.47;4960512;29;20331;-68
2021/05/11 00:21:16;;;;;;;1999.90;999.90;;;;;;;15.45;100.00;9715.69;4960899;29;20596;-68
2021/05/11 00:24:02;;;;;;;1999.90;999.90;;;;;;;15.59;100.00;2266.97;4960797;29;20301;-67
2021/05/11 00:26:52;;;;;;;1999.90;999.90;;;;;;;15.67;100.00;-2032.69;4960721;29;20483;-68
2021/05/11 00:29:40;;;;;;;1999.90;999.90;;;;;;;15.66;100.00;-6988.16;4960706;29;20204;-68
2021/05/11 00:32:26;;;;;;;1999.90;999.90;;;;;;;15.39;100.00;-5526.84;4960294;29;20207;-67
2021/05/11 00:35:13;;;;;;;1999.90;999.90;;;;;;;15.36;100.00;-1631.34;4959699;28;20199;-67
2021/05/11 00:37:59;;;;;;;1999.90;999.90;;;;;;;15.46;100.00;-1969.22;4960569;29;20219;-67
2021/05/11 00:40:45;;;;;;;1999.90;999.90;;;;;;;15.40;100.00;-2403.63;4959509;29;20208;-67
2021/05/11 00:43:30;;;;;;;1999.90;999.90;;;;;;;15.80;100.00;-2370.78;4959685;29;20320;-67
2021/05/11 00:46:17;;;;;;;1999.90;999.90;;;;;;;15.58;100.00;-6396.06;4960413;29;20348;-68
2021/05/11 00:49:03;;;;;;;1999.90;999.90;;;;;;;15.60;100.00;-8895.81;4960081;29;20676;-68
2021/05/11 00:51:49;;;;;;;1999.90;999.90;;;;;;;16.09;100.00;-13874.09;4959224;29;20207;-68
2021/05/11 00:54:39;;;;;;;1999.90;999.90;;;;;;;16.13;100.00;-17653.72;4959453;29;20208;-68
2021/05/11 00:57:25;;;;;;;1999.90;999.90;;;;;;;16.07;100.00;-18335.25;4959700;29;20203;-68
2021/05/11 01:00:12;;;;;;;1999.90;999.90;;;;;;;16.24;100.00;-18339.66;4959437;29;20472;-68
2021/05/11 01:02:59;;;;;;;1999.90;999.90;;;;;;;16.08;100.00;-18335.66;4960020;29;20321;-68
2021/05/11 01:05:45;;;;;;;1999.90;999.90;;;;;;;16.06;100.00;-18335.13;4959835;29;20248;-68
2021/05/11 01:08:31;;;;;;;1999.90;999.90;;;;;;;15.58;100.00;-18322.34;4959870;29;20204;-68
2021/05/11 01:11:19;;;;;;;1999.90;999.90;;;;;;;15.50;100.00;-17698.63;4959593;29;20328;-68
2021/05/11 01:14:07;;;;;;;1999.90;999.90;;;;;;;15.29;100.00;-13205.38;4959380;29;20685;-68
2021/05/11 01:16:55;;;;;;;1999.90;999.90;;;;;;;15.29;100.00;-12508.81;4960134;29;20208;-67
2021/05/11 01:19:45;;;;;;;1999.90;999.90;;;;;;;15.69;100.00;-12059.28;4959646;29;20235;-67
2021/05/11 01:22:48;;;;;;;1999.90;999.90;;;;;;;15.82;100.00;-16620.25;4959301;29;20204;-68
2021/05/11 01:25:37;;;;;;;1999.90;999.90;;;;;;;15.82;100.00;-17810.38;4959198;29;20503;-67
2021/05/11 01:28:28;;;;;;;1999.90;999.90;;;;;;;15.93;100.00;-18331.66;4959080;29;20509;-68
2021/05/11 01:31:37;;;;;;;1999.90;999.90;;;;;;;15.89;100.00;-18330.47;4958855;29;20203;-68
2021/05/11 01:43:59;;;;;;;1999.90;999.90;;;;;;;16.06;100.00;-18335.00;4943562;28;20228;-68
2021/05/11 01:47:02;;;;;;;1999.90;999.90;;;;;;;15.86;100.00;-18329.78;4959296;28;20307;-67
2021/05/11 01:50:08;;;;;;;1999.90;999.90;;;;;;;15.37;100.00;-18317.00;4958896;29;20606;-68
2021/05/11 01:53:05;;;;;;;1999.90;999.90;;;;;;;15.01;100.00;-18307.56;4958901;29;20208;-67
2021/05/11 01:59:27;;;;;;;1999.90;999.90;;;;;;;15.51;100.00;-17415.31;4959222;29;20208;-68
2021/05/11 02:23:38;;;;;;;1999.90;999.90;;;;;;;15.49;100.00;-18057.69;4958564;29;20302;-68
2021/05/11 02:26:25;;;;;;;1999.90;999.90;;;;;;;15.26;100.00;-18059.25;4958573;29;20360;-67
2021/05/11 02:29:11;;;;;;;1999.90;999.90;;;;;;;15.15;100.00;-17001.69;4959165;29;20208;-68
2021/05/11 02:32:00;;;;;;;1999.90;999.90;;;;;;;15.35;100.00;-17246.97;4958907;29;20306;-68
2021/05/11 02:34:46;;;;;;;1999.90;999.90;;;;;;;15.27;100.00;-18041.81;4958865;29;20251;-68
2021/05/11 02:37:34;;;;;;;1999.90;999.90;;;;;;;15.12;100.00;-16305.41;4958409;29;20491;-68
2021/05/11 02:40:22;;;;;;;1999.90;999.90;;;;;;;15.09;100.00;-13525.97;4958673;29;20200;-68
2021/05/11 02:43:12;;;;;;;1999.90;999.90;;;;;;;15.09;100.00;-11001.00;4958911;29;20500;-68
2021/05/11 02:45:58;;;;;;;1999.90;999.90;;;;;;;15.05;100.00;-11491.81;4958172;29;20590;-67
2021/05/11 02:48:44;;;;;;;1999.90;999.90;;;;;;;15.65;100.00;-15119.56;4958910;29;20204;-68
2021/05/11 02:51:29;;;;;;;1999.90;999.90;;;;;;;15.79;100.00;-18328.06;4967619;23;20600;-30
2021/05/11 02:54:15;;;;;;;1999.90;999.90;;;;;;;15.89;100.00;-18330.47;4939260;29;20216;-35
2021/05/11 02:57:01;;;;;;;1999.90;999.90;;;;;;;15.68;100.00;-18325.13;4939562;29;20205;-33
2021/05/11 02:59:48;;;;;;;1999.90;999.90;;;;;;;15.05;100.00;-18308.63;4941792;29;20204;-33
2021/05/11 03:02:34;;;;;;;1999.90;999.90;;;;;;;14.89;100.00;-16390.97;4942799;29;20623;-32
2021/05/11 03:05:19;;;;;;;1999.90;999.90;;;;;;;15.13;100.00;-10033.69;4942765;29;20667;-33
2021/05/11 03:08:05;;;;;;;1999.90;999.90;;;;;;;14.92;100.00;-8596.91;4942533;29;20212;-30
2021/05/11 03:10:51;;;;;;;1999.90;999.90;;;;;;;15.11;100.00;-7810.44;4942394;29;20204;-32
2021/05/11 03:13:38;;;;;;;1999.90;999.90;;;;;;;14.99;100.00;-8780.16;4942428;29;20349;-33
2021/05/11 03:16:26;;;;;;;1999.90;999.90;;;;;;;14.98;100.00;-8308.56;4942925;29;20537;-30
2021/05/11 03:19:11;;;;;;;1999.90;999.90;;;;;;;14.82;100.00;-7171.59;4942914;29;20345;-31
2021/05/11 03:21:57;;;;;;;1999.90;999.90;;;;;;;14.71;100.00;-2276.44;4942627;29;20208;-33
2021/05/11 03:24:44;;;;;;;1999.90;999.90;;;;;;;14.71;100.00;1054.19;4942486;29;20235;-34
2021/05/11 03:27:30;;;;;;;1999.90;999.90;;;;;;;14.50;100.00;3671.50;4942146;29;20205;-32
2021/05/11 03:30:16;;;;;;;1999.90;999.90;;;;;;;14.56;100.00;8668.03;4942445;29;20703;-34
2021/05/11 03:33:10;;;;;;;1999.90;999.90;;;;;;;14.53;100.00;11426.00;4935719;29;20205;-35
2021/05/11 03:35:55;;;;;;;1999.90;999.90;;;;;;;14.73;100.00;12681.06;4923508;29;20258;-35
2021/05/11 03:38:41;;;;;;;1999.90;999.90;;;;;;;14.59;100.00;11959.63;4923477;29;20201;-37
2021/05/11 03:41:30;;;;;;;1999.90;999.90;;;;;;;14.76;100.00;8030.31;4922930;29;20599;-33
2021/05/11 03:44:18;;;;;;;1999.90;999.90;;;;;;;14.70;100.00;3777.66;4923132;29;20567;-33
2021/05/11 03:47:04;;;;;;;1999.90;999.90;;;;;;;14.56;100.00;2991.25;4922885;29;20209;-30
2021/05/11 03:49:56;;;;;;;1999.90;999.90;;;;;;;14.68;100.00;4621.28;4922828;29;20217;-31
2021/05/11 03:52:43;;;;;;;1999.90;999.90;;;;;;;14.81;100.00;2388.53;4922788;29;20248;-33
2021/05/11 03:55:29;;;;;;;1999.90;999.90;;;;;;;15.06;100.00;-511.56;4922838;29;20608;-35
2021/05/11 03:58:16;;;;;;;1999.90;999.90;;;;;;;15.52;100.00;-7002.28;4923012;29;20636;-32
2021/05/11 04:01:02;;;;;;;1999.90;999.90;;;;;;;15.67;100.00;-15289.69;4922585;29;20213;-32
2021/05/11 04:03:49;;;;;;;1999.90;999.90;;;;;;;15.40;100.00;-17189.88;4922645;29;20233;-32
2021/05/11 04:06:36;;;;;;;1999.90;999.90;;;;;;;14.97;100.00;-12726.22;4922385;29;20361;-34
2021/05/11 04:09:26;;;;;;;1999.90;999.90;;;;;;;15.40;100.00;-9251.19;4922426;29;20209;-34
2021/05/11 04:12:30;;;;;;;1999.90;999.90;;;;;;;15.49;100.00;-13328.09;4922540;29;20484;-31
2021/05/11 04:18:20;;;;;;;1999.90;999.90;;;;;;;15.15;100.00;-7128.66;4921678;29;20205;-31
2021/05/11 04:21:06;;;;;;;1999.90;999.90;;;;;;;15.73;100.00;-13089.13;4922183;29;20632;-31
2021/05/11 04:23:55;;;;;;;1999.90;999.90;;;;;;;15.59;100.00;-17399.63;4922184;29;20508;-31
2021/05/11 04:26:41;;;;;;;1999.90;999.90;;;;;;;15.51;100.00;-17379.91;4923356;29;20205;-32
2021/05/11 04:29:28;;;;;;;1999.90;999.90;;;;;;;15.61;100.00;-18237.88;4922210;29;20281;-31
2021/05/11 04:32:14;;;;;;;1999.90;999.90;;;;;;;15.67;100.00;-18324.88;4922468;29;20206;-35
2021/05/11 04:35:00;;;;;;;1999.90;999.90;;;;;;;15.56;100.00;-18321.81;4921488;29;20205;-34
2021/05/11 04:37:46;;;;;;;1999.90;999.90;;;;;;;15.71;100.00;-18325.81;4921777;29;20201;-31
2021/05/11 04:40:33;;;;;;;1999.90;999.90;;;;;;;15.80;100.00;-18328.19;4921576;29;20603;-31
2021/05/11 04:43:22;;;;;;;1999.90;999.90;;;;;;;15.82;100.00;-18328.72;4928861;29;20196;-30
2021/05/11 04:46:15;;;;;;;1999.90;999.90;;;;;;;15.75;100.00;-18327.00;4940216;29;20208;-36
2021/05/11 04:49:02;;;;;;;1999.90;999.90;;;;;;;15.30;100.00;-18315.16;4940864;29;20208;-34
2021/05/11 04:51:48;;;;;;;1999.90;999.90;;;;;;;15.14;100.00;-18311.03;4940146;29;20236;-32
2021/05/11 04:54:34;;;;;;;1999.90;999.90;;;;;;;14.81;100.00;-12903.22;4940377;29;20264;-30
2021/05/11 04:57:21;;;;;;;1999.90;999.90;;;;;;;14.92;100.00;-3860.13;4939762;29;20592;-36
2021/05/11 05:00:08;;;;;;;1999.90;999.90;;;;;;;15.02;100.00;2262.94;4939757;29;20594;-34
2021/05/11 05:02:55;;;;;;;1999.90;999.90;;;;;;;15.55;100.00;-3511.34;4940211;29;20201;-33
2021/05/11 05:05:45;;;;;;;1999.90;999.90;;;;;;;15.05;100.00;-6694.22;4940180;29;20228;-31
2021/05/11 05:08:31;;;;;;;1999.90;999.90;;;;;;;15.43;100.00;-2141.97;4939662;29;20348;-33
2021/05/11 05:11:17;;;;;;;1999.90;999.90;;;;;;;15.60;100.00;-6611.97;4939863;29;20200;-30
2021/05/11 05:14:09;;;;;;;1999.90;999.90;;;;;;;15.52;100.00;-7606.22;4939994;29;20216;-30
2021/05/11 05:16:57;;;;;;;1999.90;999.90;;;;;;;16.14;100.00;-11417.06;4940546;29;20268;-31
2021/05/11 05:19:45;;;;;;;1999.90;999.90;;;;;;;16.40;100.00;-18344.03;4939920;29;20204;-31
2021/05/11 05:22:32;;;;;;;1999.90;999.90;;;;;;;16.50;100.00;-18346.56;4939176;29;20603;-31
2021/05/11 05:25:20;;;;;;;1999.90;999.90;;;;;;;16.35;100.00;-18342.72;4939086;29;20495;-33
2021/05/11 05:28:08;;;;;;;1999.90;999.90;;;;;;;16.44;100.00;-18344.97;4938921;29;20205;-31
2021/05/11 05:31:01;;;;;;;1999.90;999.90;;;;;;;16.53;100.00;-18347.34;4938899;29;20205;-31
2021/05/11 05:33:50;;;;;;;1999.90;999.90;;;;;;;16.35;100.00;-18342.56;4939427;29;20221;-35
2021/05/11 05:36:36;;;;;;;1999.90;999.90;;;;;;;16.43;100.00;-18344.69;4939732;29;20200;-34
2021/05/11 05:39:30;;;;;;;1999.90;999.90;;;;;;;16.46;100.00;-18345.63;4938793;29;20200;-32
2021/05/11 05:42:18;;;;;;;1999.90;999.90;;;;;;;15.87;100.00;-18330.06;4939289;29;20481;-37
2021/05/11 05:45:05;;;;;;;1999.90;999.90;;;;;;;16.48;100.00;-18346.03;4939890;29;20229;-33
2021/05/11 05:47:52;;;;;;;1999.90;999.90;;;;;;;16.75;100.00;-18353.09;4939644;29;20204;-31
2021/05/11 05:50:38;;;;;;;1999.90;999.90;;;;;;;16.62;100.00;-18349.75;4939011;29;20476;-33
2021/05/11 05:53:28;;;;;;;1999.90;999.90;;;;;;;16.62;100.00;-18349.63;4939307;29;20497;-35
2021/05/11 05:56:15;;;;;;;1999.90;999.90;;;;;;;16.50;100.00;-18346.69;4939338;29;20256;-31
2021/05/11 05:59:02;;;;;;;1999.90;999.90;;;;;;;16.37;100.00;-18343.25;4939376;29;20204;-32
2021/05/11 06:01:49;;;;;;;1999.90;999.90;;;;;;;16.68;100.00;-18351.34;4937850;29;20200;-34
2021/05/11 06:04:36;;;;;;;1999.90;999.90;;;;;;;16.57;100.00;-18348.44;4938964;29;20350;-33
2021/05/11 06:07:22;;;;;;;1999.90;999.90;;;;;;;16.53;100.00;-18347.34;4939434;29;20203;-35
2021/05/11 06:10:10;;;;;;;1999.90;999.90;;;;;;;16.16;100.00;-18337.66;4939272;29;20625;-34
2021/05/11 06:12:59;;;;;;;1999.90;999.90;;;;;;;16.32;100.00;-18341.91;4939517;29;20224;-37
2021/05/11 06:18:50;;;;;;;1999.90;999.90;;;;;;;16.54;100.00;-18347.63;4939002;29;20245;-30
2021/05/11 06:21:37;;;;;;;1999.90;999.90;;;;;;;16.25;100.00;-18340.03;4939547;29;20252;-34
2021/05/11 06:24:29;;;;;;;1999.90;999.90;;;;;;;16.20;100.00;-18338.72;4939187;29;20205;-32
2021/05/11 06:27:16;;;;;;;1999.90;999.90;;;;;;;16.17;100.00;-18338.06;4938340;29;20292;-31
2021/05/11 06:30:08;;;;;;;1999.90;999.90;;;;;;;16.16;100.00;-18337.78;4939001;29;20201;-35
2021/05/11 06:32:57;;;;;;;1999.90;999.90;;;;;;;15.95;100.00;-18332.06;4938889;29;20220;-33
2021/05/11 06:35:44;;;;;;;1999.90;999.90;;;;;;;16.02;100.00;-18334.06;4942811;29;20595;-31
2021/05/11 06:38:32;;;;;;;1999.90;999.90;;;;;;;16.36;100.00;-18342.84;4942841;29;20212;-32
2021/05/11 06:41:19;;;;;;;1999.90;999.90;;;;;;;16.40;100.00;-18343.91;4942828;29;20197;-34
2021/05/11 06:44:08;;;;;;;1999.90;999.90;;;;;;;16.25;100.00;-18340.03;4942918;29;20208;-34
2021/05/11 06:47:15;;;;;;;1999.90;999.90;;;;;;;16.78;100.00;-18353.88;4942841;29;20312;-32
2021/05/11 06:50:16;;;;;;;1999.90;999.90;;;;;;;17.23;100.00;-18365.72;4942379;29;20264;-32
2021/05/11 06:53:12;;;;;;;1999.90;999.90;;;;;;;16.96;100.00;-18358.53;4942490;29;20240;-32
2021/05/11 06:56:02;;;;;;;1999.90;999.90;;;;;;;17.02;100.00;-18360.13;4942898;29;20197;-36
2021/05/11 06:58:49;;;;;;;1999.90;999.90;;;;;;;16.57;100.00;-18348.44;4942067;29;20296;-31
2021/05/11 07:01:35;;;;;;;1999.90;999.90;;;;;;;16.68;100.00;-18351.34;4941807;29;20208;-34
2021/05/11 07:04:22;;;;;;;1999.90;999.90;;;;;;;16.95;100.00;-18358.41;4942677;29;20472;-36
2021/05/11 07:07:10;;;;;;;1999.90;999.90;;;;;;;16.99;100.00;-18359.34;4942932;29;20292;-32
2021/05/11 07:10:19;;;;;;;1999.90;999.90;;;;;;;16.60;100.00;-18349.09;4942005;29;20305;-33
2021/05/11 07:13:10;;;;;;;1999.90;999.90;;;;;;;16.32;100.00;-18341.78;4942339;29;20314;-33
2021/05/11 07:15:57;;;;;;;1999.90;999.90;;;;;;;16.53;100.00;-18347.34;4941270;29;20200;-33
2021/05/11 07:18:43;;;;;;;1999.90;999.90;;;;;;;16.50;100.00;-18346.56;4941886;29;20209;-32
2021/05/11 07:21:29;;;;;;;1999.90;999.90;;;;;;;15.66;100.00;-18324.47;4941767;29;20304;-33
2021/05/11 07:24:19;;;;;;;1999.90;999.90;;;;;;;15.80;100.00;-18328.19;4941664;29;20261;-32
2021/05/11 07:27:30;;;;;;;1999.90;999.90;;;;;;;15.98;100.00;-18333.00;4941064;29;20224;-35
2021/05/11 07:30:28;;;;;;;1999.90;999.90;;;;;;;15.44;100.00;-18318.75;4941579;29;20205;-36
2021/05/11 07:33:15;;;;;;;1999.90;999.90;;;;;;;15.29;100.00;-18314.88;4942073;29;20197;-32
2021/05/11 07:36:00;;;;;;;1999.90;999.90;;;;;;;15.02;100.00;-18307.81;4937705;29;21253;-34
2021/05/11 07:38:48;;;;;;;1999.90;999.90;;;;;;;15.04;100.00;-18308.34;4923282;29;20277;-34
2021/05/11 07:41:38;;;;;;;1999.90;999.90;;;;;;;15.31;100.00;-18315.41;4922636;29;20301;-34
2021/05/11 07:44:25;;;;;;;1999.90;999.90;;;;;;;15.25;100.00;-18313.81;4924615;29;20209;-35
2021/05/11 07:47:19;;;;;;;1999.90;999.90;;;;;;;15.25;100.00;-18313.81;4941048;29;20585;-31
2021/05/11 07:50:28;;;;;;;1999.90;999.90;;;;;;;15.56;100.00;-18321.81;4940958;29;20284;-34
2021/05/11 08:05:54;;;;;;;1999.90;999.90;;;;;;;15.11;100.00;-18310.09;4941323;29;20771;-33
2021/05/11 08:14:59;;;;;;;1999.90;999.90;;;;;;;16.18;100.00;-18338.19;4941357;29;20208;-34
2021/05/11 08:17:53;;;;;;;1999.90;999.90;;;;;;;16.51;100.00;-18346.97;4939947;29;20204;-36
2021/05/11 08:29:51;;;;;;;1999.90;999.90;;;;;;;16.73;100.00;-18352.69;4941086;29;20197;-33
2021/05/11 08:32:38;;;;;;;1999.90;999.90;;;;;;;16.79;100.00;-18354.28;4940487;29;20736;-32
2021/05/11 08:35:25;;;;;;;1999.90;999.90;;;;;;;17.00;100.00;-18359.72;4939381;29;20201;-33
2021/05/11 08:38:13;;;;;;;1999.90;999.90;;;;;;;16.96;100.00;-18358.66;4939893;29;20616;-33
2021/05/11 08:41:00;;;;;;;1999.90;999.90;;;;;;;16.85;100.00;-18355.75;4940356;29;20487;-35
2021/05/11 08:43:47;;;;;;;1999.90;999.90;;;;;;;16.93;100.00;-18357.88;4940400;29;20200;-32
2021/05/11 08:46:35;;;;;;;1999.90;999.90;;;;;;;17.32;100.00;-18368.09;4940084;29;20233;-35
2021/05/11 08:49:25;;;;;;;1999.90;999.90;;;;;;;17.27;100.00;-18366.78;4940206;29;20205;-32
2021/05/11 08:52:22;;;;;;;1999.90;999.90;;;;;;;17.09;100.00;-18362.00;4939952;29;20720;-34
2021/05/11 08:55:28;;;;;;;1999.90;999.90;;;;;;;17.51;100.00;-18373.16;4940047;29;20609;-32
2021/05/11 09:05:08;;;;;;;1999.90;999.90;;;;;;;16.42;100.00;-18344.56;4939883;29;20208;-33
2021/05/11 09:08:04;;;;;;;1999.90;999.90;;;;;;;16.90;100.00;-18356.94;4939818;29;20350;-36
2021/05/11 09:23:35;;;;;;;1999.90;999.90;;;;;;;16.51;100.00;-18346.97;4940274;29;20209;-37
2021/05/11 09:26:36;;;;;;;1999.90;999.90;;;;;;;16.50;100.00;-18346.69;4936256;29;20226;-34
2021/05/11 09:29:32;;;;;;;1999.90;999.90;;;;;;;16.27;100.00;-18340.44;4931970;29;20200;-33
2021/05/11 09:32:36;;;;;;;1999.90;999.90;;;;;;;16.25;100.00;-18340.03;4924772;29;20225;-36
2021/05/11 09:45:19;;;;;;;1999.90;999.90;;;;;;;16.45;100.00;-18345.22;4920535;29;20599;-35
2021/05/11 09:54:33;;;;;;;1999.90;999.90;;;;;;;16.82;100.00;-18355.06;4933318;29;20311;-36
2021/05/11 09:57:41;;;;;;;1999.90;999.90;;;;;;;16.26;100.00;-18340.19;4939112;29;20265;-33
2021/05/11 10:32:18;;;;;;;1999.90;999.90;;;;;;;16.28;100.00;-18340.84;4920312;29;20205;-36
2021/05/11 10:41:52;;;;;;;1999.90;999.90;;;;;;;16.66;100.00;-18350.69;4919901;29;20234;-37
2021/05/11 10:48:22;;;;;;;1999.90;999.90;;;;;;;16.02;100.00;-18333.91;4920243;29;20501;-36
2021/05/11 10:51:28;;;;;;;1999.90;999.90;;;;;;;16.14;100.00;-18337.13;4937722;29;20207;-35
2021/05/11 10:54:36;;;;;;;1999.90;999.90;;;;;;;15.99;100.00;-18333.13;4939126;29;20314;-34
2021/05/11 10:57:29;;;;;;;1999.90;999.90;;;;;;;16.05;100.00;-18334.84;4938298;29;20295;-34
2021/05/11 11:00:40;;;;;;;1999.90;999.90;;;;;;;15.96;100.00;-18332.47;4938531;29;20209;-37
2021/05/11 11:03:29;;;;;;;1999.90;999.90;;;;;;;15.91;100.00;-18331.00;4938800;29;20287;-37
2021/05/11 11:06:15;;;;;;;1999.90;999.90;;;;;;;16.07;100.00;-18335.38;4938398;29;20284;-36
2021/05/11 11:09:08;;;;;;;1999.90;999.90;;;;;;;15.67;100.00;-18324.75;4938329;29;20300;-38
2021/05/11 11:11:55;;;;;;;1999.90;999.90;;;;;;;16.02;100.00;-18333.91;4938132;29;20299;-34
2021/05/11 11:14:45;;;;;;;1999.90;999.90;;;;;;;15.71;100.00;-18325.81;4938283;29;20209;-36
2021/05/11 11:17:40;;;;;;;1999.90;999.90;;;;;;;16.01;100.00;-18333.66;4937599;29;20624;-32
2021/05/11 11:20:40;;;;;;;1999.90;999.90;;;;;;;15.97;100.00;-18332.59;4940331;29;20205;-35
2021/05/11 11:23:35;;;;;;;1999.90;999.90;;;;;;;16.01;100.00;-18333.78;4941525;29;20204;-33
2021/05/11 11:26:25;;;;;;;1999.90;999.90;;;;;;;16.23;100.00;-18339.50;4941804;29;20229;-33
2021/05/11 11:29:14;;;;;;;1999.90;999.90;;;;;;;15.96;100.00;-18332.47;4941591;29;20209;-36
2021/05/11 11:32:06;;;;;;;1999.90;999.90;;;;;;;15.91;100.00;-18331.00;4941199;29;20599;-32
2021/05/11 11:34:59;;;;;;;1999.90;999.90;;;;;;;15.97;100.00;-18332.72;4941598;29;20208;-32
2021/05/11 11:37:46;;;;;;;1999.90;999.90;;;;;;;15.65;100.00;-18324.22;4941408;29;20224;-34
2021/05/11 11:40:36;;;;;;;1999.90;999.90;;;;;;;15.78;100.00;-18327.66;4940362;29;20212;-35
2021/05/11 11:43:25;;;;;;;1999.90;999.90;;;;;;;16.03;100.00;-18334.19;4941258;29;20287;-33
2021/05/11 11:46:11;;;;;;;1999.90;999.90;;;;;;;15.91;100.00;-18331.00;4922155;29;20229;-34
2021/05/11 11:49:08;;;;;;;1999.90;999.90;;;;;;;15.89;100.00;-18330.59;4921514;29;20213;-34
2021/05/11 11:52:02;;;;;;;1999.90;999.90;;;;;;;15.67;100.00;-18324.88;4921521;29;20237;-34
2021/05/11 11:55:00;;;;;;;1999.90;999.90;;;;;;;15.44;100.00;-18318.88;4921963;29;20408;-34
2021/05/11 11:57:48;;;;;;;1999.90;999.90;;;;;;;15.75;100.00;-18327.00;4922719;29;20351;-35
2021/05/11 12:00:38;;;;;;;1999.90;999.90;;;;;;;15.88;100.00;-18330.19;4921936;29;20205;-34
2021/05/11 12:03:24;;;;;;;1999.90;999.90;;;;;;;15.44;100.00;-18318.88;4921224;29;20400;-36
2021/05/11 12:06:17;;;;;;;1999.90;999.90;;;;;;;16.22;100.00;-18339.25;4921450;29;20221;-34
2021/05/11 12:09:03;;;;;;;1999.90;999.90;;;;;;;15.89;100.00;-18330.47;4921916;29;20297;-36
2021/05/11 12:11:50;;;;;;;1999.90;999.90;;;;;;;15.45;100.00;-18319.16;4922301;29;20204;-34
2021/05/11 12:14:38;;;;;;;1999.90;999.90;;;;;;;15.66;100.00;-18324.59;4921495;29;20204;-37
2021/05/11 12:17:31;;;;;;;1999.90;999.90;;;;;;;15.92;100.00;-18331.25;4922494;29;20206;-34
2021/05/11 12:20:24;;;;;;;1999.90;999.90;;;;;;;15.57;100.00;-18322.06;4922177;29;20208;-37
2021/05/11 12:23:14;;;;;;;1999.90;999.90;;;;;;;15.55;100.00;-18321.53;4922035;29;20221;-35
2021/05/11 12:26:03;;;;;;;1999.90;999.90;;;;;;;15.43;100.00;-18318.47;4922071;29;20224;-36
2021/05/11 12:28:49;;;;;;;1999.90;999.90;;;;;;;15.86;100.00;-18329.78;4922327;29;20329;-38
2021/05/11 12:31:42;;;;;;;1999.90;999.90;;;;;;;15.17;100.00;-18311.69;4921018;29;20277;-32
2021/05/11 12:34:29;;;;;;;1999.90;999.90;;;;;;;15.83;100.00;-18329.00;4921385;29;20269;-33
2021/05/11 12:37:15;;;;;;;1999.90;999.90;;;;;;;15.11;100.00;-18310.22;4922265;29;20217;-36
2021/05/11 12:40:09;;;;;;;1999.90;999.90;;;;;;;16.05;100.00;-18334.72;4931003;29;20212;-37
2021/05/11 12:42:56;;;;;;;1999.90;999.90;;;;;;;16.30;100.00;-18341.38;4922353;29;20596;-35
2021/05/11 12:45:50;;;;;;;1999.90;999.90;;;;;;;15.66;100.00;-18324.59;4922030;29;20205;-34
2021/05/11 12:48:52;;;;;;;1999.90;999.90;;;;;;;15.47;100.00;-18319.69;4921161;29;20198;-33
2021/05/11 12:51:41;;;;;;;1999.90;999.90;;;;;;;16.27;100.00;-18340.56;4923236;29;20352;-35
2021/05/11 12:54:34;;;;;;;1999.90;999.90;;;;;;;16.26;100.00;-18340.31;4940400;29;20206;-34
2021/05/11 12:57:36;;;;;;;1999.90;999.90;;;;;;;16.26;100.00;-18340.19;4921858;29;20323;-33
2021/05/11 13:00:35;;;;;;;1999.90;999.90;;;;;;;16.70;100.00;-18351.88;4921052;29;20263;-34
2021/05/11 13:03:39;;;;;;;1999.90;999.90;;;;;;;15.98;100.00;-18333.00;4921234;29;20692;-37
2021/05/11 13:16:18;;;;;;;1999.90;999.90;;;;;;;15.97;100.00;-18332.72;4920856;29;20201;-32
2021/05/11 13:22:36;;;;;;;1999.90;999.90;;;;;;;15.57;100.00;-18322.06;4911622;29;20282;-37
2021/05/11 13:25:31;;;;;;;1999.90;999.90;;;;;;;16.29;100.00;-18340.97;4920136;29;20205;-33
2021/05/11 13:28:22;;;;;;;1999.90;999.90;;;;;;;15.87;100.00;-18329.94;4919520;29;20573;-36
2021/05/11 13:31:17;;;;;;;1999.90;999.90;;;;;;;16.56;100.00;-18348.03;4920948;29;20436;-34
2021/05/11 13:34:10;;;;;;;1999.90;999.90;;;;;;;16.76;100.00;-18353.47;4919936;29;20363;-36
2021/05/11 13:36:58;;;;;;;1999.90;999.90;;;;;;;16.96;100.00;-18358.66;4920330;29;20269;-38
2021/05/11 13:39:44;;;;;;;1999.90;999.90;;;;;;;16.18;100.00;-18338.31;4920091;29;20221;-33
2021/05/11 13:42:33;;;;;;;1999.90;999.90;;;;;;;16.00;100.00;-18333.53;4920218;29;20337;-37
2021/05/11 13:45:20;;;;;;;1999.90;999.90;;;;;;;15.50;100.00;-18320.47;4920563;29;20272;-32
2021/05/11 13:48:11;;;;;;;1999.90;999.90;;;;;;;15.68;100.00;-18325.13;4919872;29;20502;-35
2021/05/11 13:50:59;;;;;;;1999.90;999.90;;;;;;;15.75;100.00;-18327.00;4920175;29;20205;-35
2021/05/11 13:53:48;;;;;;;1999.90;999.90;;;;;;;16.41;100.00;-18344.16;4920149;29;20250;-35
2021/05/11 13:56:46;;;;;;;1999.90;999.90;;;;;;;16.01;100.00;-18333.66;4920426;29;20326;-34
2021/05/11 14:02:48;;;;;;;1999.90;999.90;;;;;;;15.82;100.00;-18328.72;4919946;29;20869;-34
2021/05/11 14:05:34;;;;;;;1999.90;999.90;;;;;;;15.51;100.00;-18320.75;4920564;29;20290;-35
2021/05/11 14:08:20;;;;;;;1999.90;999.90;;;;;;;16.01;100.00;-18333.66;4920659;29;20221;-34
2021/05/11 14:11:12;;;;;;;1999.90;999.90;;;;;;;16.09;100.00;-18335.91;4919592;29;20220;-39
2021/05/11 14:14:00;;;;;;;1999.90;999.90;;;;;;;16.23;100.00;-18339.38;4919870;29;20305;-33
2021/05/11 14:16:47;;;;;;;1999.90;999.90;;;;;;;16.88;100.00;-18356.53;4919939;29;20223;-36
2021/05/11 14:19:36;;;;;;;1999.90;999.90;;;;;;;17.07;100.00;-18361.59;4920093;29;20506;-36
2021/05/11 14:22:25;;;;;;;1999.90;999.90;;;;;;;16.97;100.00;-18358.81;4919878;29;20564;-33
2021/05/11 14:25:15;;;;;;;1999.90;999.90;;;;;;;17.40;100.00;-18370.09;4920228;29;20300;-34
2021/05/11 14:28:04;;;;;;;1999.90;999.90;;;;;;;17.54;100.00;-18373.94;4919410;29;20256;-34
2021/05/11 14:30:58;;;;;;;1999.90;999.90;;;;;;;17.56;100.00;-18374.47;4919899;29;20210;-37
2021/05/11 14:33:45;;;;;;;1999.90;999.90;;;;;;;16.67;100.00;-18350.94;4919471;29;20674;-35
2021/05/11 14:36:43;;;;;;;1999.90;999.90;;;;;;;16.83;100.00;-18355.34;4919844;29;20206;-38
2021/05/11 14:39:30;;;;;;;1999.90;999.90;;;;;;;16.90;100.00;-18356.94;4919147;29;20211;-35
2021/05/11 14:42:16;;;;;;;1999.90;999.90;;;;;;;17.00;100.00;-18359.72;4919563;29;20310;-36
2021/05/11 14:45:03;;;;;;;1999.90;999.90;;;;;;;16.90;100.00;-18356.94;4919265;29;20295;-37
2021/05/11 14:47:49;;;;;;;1999.90;999.90;;;;;;;16.59;100.00;-18348.94;4919467;29;20639;-34
2021/05/11 14:50:36;;;;;;;1999.90;999.90;;;;;;;16.83;100.00;-18355.22;4919443;29;20212;-36
2021/05/11 14:53:29;;;;;;;1999.90;999.90;;;;;;;16.54;100.00;-18347.75;4920040;29;20240;-36
2021/05/11 14:56:24;;;;;;;1999.90;999.90;;;;;;;16.33;100.00;-18342.16;4923300;29;20206;-38
2021/05/11 14:59:13;;;;;;;1999.90;999.90;;;;;;;16.81;100.00;-18354.69;4923260;29;20222;-34
2021/05/11 15:01:59;;;;;;;1999.90;999.90;;;;;;;16.30;100.00;-18341.25;4923380;29;20271;-34
2021/05/11 15:04:47;;;;;;;1999.90;999.90;;;;;;;16.56;100.00;-18348.16;4923161;29;20263;-34